San Luis Potosi, SLP, Mexico
Current Conditions -  °F | °C
As of 1:46 AM on Sunday 26 Oct 2014 (Local Time) from MMSP Reporting Station
Clear Clear  
Wind Chill: 52°   Ceiling: Unl
Heat Index: 52°   Visibility: 10mi
Dew Point: 48°   Wind: 5mph
Humidity: 88%   Direction: 160°SSE
Pressure: 30.32"   Gusts: NA
Location:  22.16°N, 100.98°W
Report Text: MMSP 260646Z 16004KT 10SM SKC 11/09 A3032
Loading
Personal Weather Stations






























Interactive Weather Map
Tropical Storm Tracking
New forecast layout! Learn more

10-Day Weather Forecast

Advertisements
Track Severe Weather on mobile